Accueil
METAR-TAF:

METAR-TAF

Aéroports :

Base aérienne de Lechfeld

Lechfeld, Allemagne

latitude: 48-11N, longitude: 010-52E, altitude: 555 m

Observation

Le bulletin a été fait il y a 43 minutes, à 09:20 UTC
Vent 10 kt de nord/nord-est
Température 14°C
Humidité 47%
Pression 1021 hPa
Visibilité 10 km ou plus

METAR: ETSL 300920Z AUTO 02010KT 9999 // ////// 14/03 Q1021 ///

Heure: 12:03 (10:03 UTC)

Prévision

Le bulletin a été fait il y a 26 heures et 43 minutes, à 07:20 UTC
Prévision valable du 29 à 08 UTC au 29 à 17 UTC
Vent 12 kt de nord-est
Visibilité 10 km ou plus
Quelques nuages à une hauteur de 4000 ft

TAF: ETSL 290720Z 2908/2917 05012KT 9999 NSW FEW040 BY ETGL

Observations et prévisions météorologiques de plus de 4000 aéroports (messages METAR et TAF).

Les stations disponibles sont représentées par des disques jaunes et rouges sur la carte.

Passer la souris dessus pour voir le nom de la station.

Cliquer dessus pour voir les observations et prévisions météorologiques.

Pour changer de carte: cliquez sur les boutons verts avec une croix noire pour zoomer, sur le bouton vert avec un tiret pour effectuer un zoom arrière, ou sur les flèches vertes pour les cartes adjacentes.


METAR-TAF: